sensor_id;sensor_type;location;lat;lon;timestamp;P1;durP1;ratioP1;P2;durP2;ratioP2
10174;SDS011;18221;38.704;0.152;2022-08-03T00:11:03;4.33;;;3.53;;
10174;SDS011;18221;38.704;0.152;2022-08-03T00:13:32;3.70;;;3.37;;
10174;SDS011;18221;38.704;0.152;2022-08-03T00:16:02;3.60;;;3.27;;
10174;SDS011;18221;38.704;0.152;2022-08-03T00:18:30;4.03;;;3.40;;
10174;SDS011;18221;38.704;0.152;2022-08-03T00:20:58;4.20;;;3.60;;
10174;SDS011;18221;38.704;0.152;2022-08-03T00:23:26;3.83;;;3.40;;
10174;SDS011;18221;38.704;0.152;2022-08-03T00:25:54;4.23;;;3.40;;
10174;SDS011;18221;38.704;0.152;2022-08-03T00:28:22;3.67;;;3.00;;
10174;SDS011;18221;38.704;0.152;2022-08-03T00:30:50;3.60;;;3.27;;
10174;SDS011;18221;38.704;0.152;2022-08-03T00:33:21;4.20;;;3.77;;
10174;SDS011;18221;38.704;0.152;2022-08-03T00:35:50;4.53;;;3.50;;
10174;SDS011;18221;38.704;0.152;2022-08-03T00:38:18;4.20;;;3.80;;
10174;SDS011;18221;38.704;0.152;2022-08-03T00:40:46;4.57;;;3.30;;
10174;SDS011;18221;38.704;0.152;2022-08-03T00:43:14;4.43;;;3.33;;
10174;SDS011;18221;38.704;0.152;2022-08-03T00:45:43;4.27;;;3.87;;
10174;SDS011;18221;38.704;0.152;2022-08-03T00:48:11;6.23;;;3.50;;
10174;SDS011;18221;38.704;0.152;2022-08-03T00:50:41;5.47;;;3.73;;
10174;SDS011;18221;38.704;0.152;2022-08-03T00:53:09;4.67;;;3.37;;
10174;SDS011;18221;38.704;0.152;2022-08-03T00:55:38;5.13;;;3.97;;
10174;SDS011;18221;38.704;0.152;2022-08-03T00:58:06;7.73;;;3.47;;
10174;SDS011;18221;38.704;0.152;2022-08-03T01:00:36;3.40;;;3.10;;
10174;SDS011;18221;38.704;0.152;2022-08-03T01:03:05;3.97;;;3.50;;
10174;SDS011;18221;38.704;0.152;2022-08-03T01:05:37;5.77;;;3.43;;
10174;SDS011;18221;38.704;0.152;2022-08-03T01:08:19;4.57;;;3.30;;
10174;SDS011;18221;38.704;0.152;2022-08-03T01:11:01;4.10;;;3.43;;
10174;SDS011;18221;38.704;0.152;2022-08-03T01:13:43;4.37;;;3.17;;
10174;SDS011;18221;38.704;0.152;2022-08-03T01:16:26;4.40;;;2.90;;
10174;SDS011;18221;38.704;0.152;2022-08-03T01:19:07;3.63;;;3.10;;
10174;SDS011;18221;38.704;0.152;2022-08-03T01:22:11;4.80;;;2.60;;
10174;SDS011;18221;38.704;0.152;2022-08-03T01:25:04;5.50;;;3.13;;
10174;SDS011;18221;38.704;0.152;2022-08-03T01:27:50;3.30;;;2.73;;
10174;SDS011;18221;38.704;0.152;2022-08-03T01:30:40;2.77;;;2.50;;
10174;SDS011;18221;38.704;0.152;2022-08-03T01:33:12;2.80;;;2.60;;
10174;SDS011;18221;38.704;0.152;2022-08-03T01:35:49;4.30;;;2.63;;
10174;SDS011;18221;38.704;0.152;2022-08-03T01:38:24;5.90;;;2.90;;
10174;SDS011;18221;38.704;0.152;2022-08-03T01:40:58;3.97;;;3.00;;
10174;SDS011;18221;38.704;0.152;2022-08-03T01:43:34;3.93;;;3.10;;
10174;SDS011;18221;38.704;0.152;2022-08-03T01:46:07;4.70;;;3.00;;
10174;SDS011;18221;38.704;0.152;2022-08-03T01:48:37;3.63;;;3.30;;
10174;SDS011;18221;38.704;0.152;2022-08-03T01:51:08;4.53;;;3.13;;
10174;SDS011;18221;38.704;0.152;2022-08-03T01:53:39;4.70;;;3.40;;
10174;SDS011;18221;38.704;0.152;2022-08-03T01:56:08;3.63;;;3.33;;
10174;SDS011;18221;38.704;0.152;2022-08-03T01:58:38;4.30;;;3.30;;
10174;SDS011;18221;38.704;0.152;2022-08-03T02:01:10;5.17;;;3.17;;
10174;SDS011;18221;38.704;0.152;2022-08-03T02:03:41;3.47;;;3.17;;
10174;SDS011;18221;38.704;0.152;2022-08-03T02:06:12;4.00;;;3.40;;
10174;SDS011;18221;38.704;0.152;2022-08-03T02:08:43;3.60;;;3.30;;
10174;SDS011;18221;38.704;0.152;2022-08-03T02:11:14;4.60;;;3.40;;
10174;SDS011;18221;38.704;0.152;2022-08-03T02:13:42;4.00;;;3.43;;
10174;SDS011;18221;38.704;0.152;2022-08-03T02:16:15;6.10;;;3.83;;
10174;SDS011;18221;38.704;0.152;2022-08-03T02:18:47;4.77;;;3.70;;
10174;SDS011;18221;38.704;0.152;2022-08-03T02:21:16;4.00;;;3.60;;
10174;SDS011;18221;38.704;0.152;2022-08-03T02:23:45;3.70;;;3.37;;
10174;SDS011;18221;38.704;0.152;2022-08-03T02:26:13;3.73;;;3.40;;
10174;SDS011;18221;38.704;0.152;2022-08-03T02:28:46;3.80;;;3.47;;
10174;SDS011;18221;38.704;0.152;2022-08-03T02:31:21;5.33;;;3.60;;
10174;SDS011;18221;38.704;0.152;2022-08-03T02:33:56;6.53;;;3.50;;
10174;SDS011;18221;38.704;0.152;2022-08-03T02:36:33;4.40;;;3.43;;
10174;SDS011;18221;38.704;0.152;2022-08-03T02:39:04;5.73;;;3.90;;
10174;SDS011;18221;38.704;0.152;2022-08-03T02:41:40;4.33;;;3.93;;
10174;SDS011;18221;38.704;0.152;2022-08-03T02:44:16;4.20;;;3.80;;
10174;SDS011;18221;38.704;0.152;2022-08-03T02:46:52;4.40;;;4.00;;
10174;SDS011;18221;38.704;0.152;2022-08-03T02:49:25;6.07;;;3.93;;
10174;SDS011;18221;38.704;0.152;2022-08-03T02:51:55;4.03;;;3.43;;
10174;SDS011;18221;38.704;0.152;2022-08-03T02:54:25;4.20;;;3.80;;
10174;SDS011;18221;38.704;0.152;2022-08-03T02:56:56;5.77;;;3.60;;
10174;SDS011;18221;38.704;0.152;2022-08-03T02:59:26;4.53;;;3.57;;
10174;SDS011;18221;38.704;0.152;2022-08-03T03:01:58;4.27;;;3.63;;
10174;SDS011;18221;38.704;0.152;2022-08-03T03:04:28;3.83;;;3.13;;
10174;SDS011;18221;38.704;0.152;2022-08-03T03:06:57;5.17;;;3.30;;
10174;SDS011;18221;38.704;0.152;2022-08-03T03:09:26;4.03;;;3.37;;
10174;SDS011;18221;38.704;0.152;2022-08-03T03:11:55;3.73;;;3.40;;
10174;SDS011;18221;38.704;0.152;2022-08-03T03:14:24;6.20;;;3.60;;
10174;SDS011;18221;38.704;0.152;2022-08-03T03:16:53;3.30;;;3.00;;
10174;SDS011;18221;38.704;0.152;2022-08-03T03:19:24;4.33;;;3.27;;
10174;SDS011;18221;38.704;0.152;2022-08-03T03:21:52;4.30;;;2.97;;
10174;SDS011;18221;38.704;0.152;2022-08-03T03:24:21;3.87;;;3.40;;
10174;SDS011;18221;38.704;0.152;2022-08-03T03:26:50;4.87;;;3.70;;
10174;SDS011;18221;38.704;0.152;2022-08-03T03:29:19;4.23;;;3.30;;
10174;SDS011;18221;38.704;0.152;2022-08-03T03:31:48;4.40;;;3.47;;
10174;SDS011;18221;38.704;0.152;2022-08-03T03:34:16;6.27;;;3.60;;
10174;SDS011;18221;38.704;0.152;2022-08-03T03:36:46;3.80;;;3.50;;
10174;SDS011;18221;38.704;0.152;2022-08-03T03:39:14;4.03;;;3.70;;
10174;SDS011;18221;38.704;0.152;2022-08-03T03:41:42;4.13;;;3.80;;
10174;SDS011;18221;38.704;0.152;2022-08-03T03:44:11;4.33;;;3.60;;
10174;SDS011;18221;38.704;0.152;2022-08-03T03:46:39;4.23;;;3.50;;
10174;SDS011;18221;38.704;0.152;2022-08-03T03:49:07;5.17;;;3.73;;
10174;SDS011;18221;38.704;0.152;2022-08-03T03:51:35;6.20;;;4.30;;
10174;SDS011;18221;38.704;0.152;2022-08-03T03:54:05;4.77;;;4.17;;
10174;SDS011;18221;38.704;0.152;2022-08-03T03:56:33;4.60;;;4.13;;
10174;SDS011;18221;38.704;0.152;2022-08-03T03:59:01;4.70;;;4.20;;
10174;SDS011;18221;38.704;0.152;2022-08-03T04:01:29;5.53;;;4.17;;
10174;SDS011;18221;38.704;0.152;2022-08-03T04:03:58;5.03;;;4.53;;
10174;SDS011;18221;38.704;0.152;2022-08-03T04:06:46;7.87;;;4.50;;
10174;SDS011;18221;38.704;0.152;2022-08-03T04:09:33;4.87;;;3.97;;
10174;SDS011;18221;38.704;0.152;2022-08-03T04:12:20;4.63;;;4.23;;
10174;SDS011;18221;38.704;0.152;2022-08-03T04:14:52;4.47;;;3.93;;
10174;SDS011;18221;38.704;0.152;2022-08-03T04:17:24;4.57;;;4.10;;
10174;SDS011;18221;38.704;0.152;2022-08-03T04:19:56;4.00;;;3.63;;
10174;SDS011;18221;38.704;0.152;2022-08-03T04:22:27;3.90;;;3.50;;
10174;SDS011;18221;38.704;0.152;2022-08-03T04:25:00;4.93;;;4.03;;
10174;SDS011;18221;38.704;0.152;2022-08-03T04:27:35;4.03;;;3.63;;
10174;SDS011;18221;38.704;0.152;2022-08-03T04:30:07;4.10;;;3.70;;
10174;SDS011;18221;38.704;0.152;2022-08-03T04:32:37;4.47;;;3.60;;
10174;SDS011;18221;38.704;0.152;2022-08-03T04:35:06;5.27;;;3.80;;
10174;SDS011;18221;38.704;0.152;2022-08-03T04:37:37;4.07;;;3.73;;
10174;SDS011;18221;38.704;0.152;2022-08-03T04:40:13;5.47;;;3.93;;
10174;SDS011;18221;38.704;0.152;2022-08-03T04:42:45;4.80;;;4.00;;
10174;SDS011;18221;38.704;0.152;2022-08-03T04:45:15;4.40;;;4.00;;
10174;SDS011;18221;38.704;0.152;2022-08-03T04:47:46;4.30;;;3.63;;
10174;SDS011;18221;38.704;0.152;2022-08-03T04:50:16;4.80;;;4.40;;
10174;SDS011;18221;38.704;0.152;2022-08-03T04:52:45;6.47;;;4.10;;
10174;SDS011;18221;38.704;0.152;2022-08-03T04:55:25;4.50;;;4.10;;
10174;SDS011;18221;38.704;0.152;2022-08-03T04:57:53;4.53;;;3.90;;
10174;SDS011;18221;38.704;0.152;2022-08-03T05:00:21;4.00;;;3.60;;
10174;SDS011;18221;38.704;0.152;2022-08-03T05:02:50;4.40;;;3.80;;
10174;SDS011;18221;38.704;0.152;2022-08-03T05:05:19;3.83;;;3.53;;
10174;SDS011;18221;38.704;0.152;2022-08-03T05:07:48;4.37;;;3.97;;
10174;SDS011;18221;38.704;0.152;2022-08-03T05:10:16;5.80;;;3.90;;
10174;SDS011;18221;38.704;0.152;2022-08-03T05:12:46;5.83;;;3.87;;
10174;SDS011;18221;38.704;0.152;2022-08-03T05:15:15;3.70;;;3.40;;
10174;SDS011;18221;38.704;0.152;2022-08-03T05:17:43;4.17;;;3.67;;
10174;SDS011;18221;38.704;0.152;2022-08-03T05:20:11;5.17;;;3.80;;
10174;SDS011;18221;38.704;0.152;2022-08-03T05:22:39;5.73;;;3.70;;
10174;SDS011;18221;38.704;0.152;2022-08-03T05:25:07;4.77;;;3.90;;
10174;SDS011;18221;38.704;0.152;2022-08-03T05:27:35;5.47;;;3.90;;
10174;SDS011;18221;38.704;0.152;2022-08-03T05:30:05;5.00;;;3.80;;
10174;SDS011;18221;38.704;0.152;2022-08-03T05:32:34;4.10;;;3.80;;
10174;SDS011;18221;38.704;0.152;2022-08-03T05:35:02;4.00;;;3.70;;
10174;SDS011;18221;38.704;0.152;2022-08-03T05:37:31;4.13;;;3.60;;
10174;SDS011;18221;38.704;0.152;2022-08-03T05:39:59;6.10;;;3.30;;
10174;SDS011;18221;38.704;0.152;2022-08-03T05:42:28;3.90;;;3.57;;
10174;SDS011;18221;38.704;0.152;2022-08-03T05:44:56;4.20;;;3.67;;
10174;SDS011;18221;38.704;0.152;2022-08-03T05:47:25;4.73;;;3.67;;
10174;SDS011;18221;38.704;0.152;2022-08-03T05:49:53;3.87;;;3.57;;
10174;SDS011;18221;38.704;0.152;2022-08-03T05:52:21;6.17;;;3.73;;
10174;SDS011;18221;38.704;0.152;2022-08-03T05:54:49;4.43;;;3.73;;
10174;SDS011;18221;38.704;0.152;2022-08-03T05:57:16;4.00;;;3.47;;
10174;SDS011;18221;38.704;0.152;2022-08-03T05:59:44;4.57;;;4.00;;
10174;SDS011;18221;38.704;0.152;2022-08-03T06:02:12;4.40;;;4.00;;
10174;SDS011;18221;38.704;0.152;2022-08-03T06:04:42;3.93;;;3.63;;
10174;SDS011;18221;38.704;0.152;2022-08-03T06:07:09;4.47;;;3.93;;
10174;SDS011;18221;38.704;0.152;2022-08-03T06:09:37;3.90;;;3.60;;
10174;SDS011;18221;38.704;0.152;2022-08-03T06:12:06;3.73;;;3.43;;
10174;SDS011;18221;38.704;0.152;2022-08-03T06:14:34;4.07;;;3.63;;
10174;SDS011;18221;38.704;0.152;2022-08-03T06:17:02;4.03;;;3.63;;
10174;SDS011;18221;38.704;0.152;2022-08-03T06:19:30;3.87;;;3.53;;
10174;SDS011;18221;38.704;0.152;2022-08-03T06:21:59;3.70;;;3.40;;
10174;SDS011;18221;38.704;0.152;2022-08-03T06:24:27;4.97;;;3.50;;
10174;SDS011;18221;38.704;0.152;2022-08-03T06:26:56;12.93;;;4.40;;
10174;SDS011;18221;38.704;0.152;2022-08-03T06:29:23;6.00;;;3.60;;
10174;SDS011;18221;38.704;0.152;2022-08-03T06:31:52;6.90;;;3.37;;
10174;SDS011;18221;38.704;0.152;2022-08-03T06:34:20;14.00;;;4.90;;
10174;SDS011;18221;38.704;0.152;2022-08-03T06:36:47;6.97;;;2.77;;
10174;SDS011;18221;38.704;0.152;2022-08-03T06:39:17;4.20;;;3.10;;
10174;SDS011;18221;38.704;0.152;2022-08-03T06:41:46;6.90;;;3.23;;
10174;SDS011;18221;38.704;0.152;2022-08-03T06:44:14;4.20;;;2.83;;
10174;SDS011;18221;38.704;0.152;2022-08-03T06:46:42;5.80;;;2.93;;
10174;SDS011;18221;38.704;0.152;2022-08-03T06:49:10;4.32;;;2.75;;
10174;SDS011;18221;38.704;0.152;2022-08-03T06:51:37;2.83;;;2.55;;
10174;SDS011;18221;38.704;0.152;2022-08-03T06:54:06;4.78;;;2.70;;
10174;SDS011;18221;38.704;0.152;2022-08-03T06:56:36;2.33;;;2.13;;
10174;SDS011;18221;38.704;0.152;2022-08-03T06:59:04;9.90;;;3.40;;
10174;SDS011;18221;38.704;0.152;2022-08-03T07:01:32;2.53;;;2.33;;
10174;SDS011;18221;38.704;0.152;2022-08-03T07:04:00;5.03;;;2.42;;
10174;SDS011;18221;38.704;0.152;2022-08-03T07:06:28;4.30;;;2.58;;
10174;SDS011;18221;38.704;0.152;2022-08-03T07:08:56;2.67;;;2.33;;
10174;SDS011;18221;38.704;0.152;2022-08-03T07:11:24;4.53;;;2.20;;
10174;SDS011;18221;38.704;0.152;2022-08-03T07:13:54;4.35;;;2.17;;
10174;SDS011;18221;38.704;0.152;2022-08-03T07:16:22;2.65;;;2.45;;
10174;SDS011;18221;38.704;0.152;2022-08-03T07:18:50;2.90;;;2.60;;
10174;SDS011;18221;38.704;0.152;2022-08-03T07:21:18;3.30;;;2.55;;
10174;SDS011;18221;38.704;0.152;2022-08-03T07:23:46;7.95;;;3.13;;
10174;SDS011;18221;38.704;0.152;2022-08-03T07:26:13;3.17;;;2.30;;
10174;SDS011;18221;38.704;0.152;2022-08-03T07:28:41;7.25;;;2.90;;
10174;SDS011;18221;38.704;0.152;2022-08-03T07:31:11;5.13;;;2.80;;
10174;SDS011;18221;38.704;0.152;2022-08-03T07:33:39;5.10;;;2.70;;
10174;SDS011;18221;38.704;0.152;2022-08-03T07:36:07;3.78;;;2.72;;
10174;SDS011;18221;38.704;0.152;2022-08-03T07:38:35;5.22;;;2.80;;
10174;SDS011;18221;38.704;0.152;2022-08-03T07:41:03;4.43;;;2.53;;
10174;SDS011;18221;38.704;0.152;2022-08-03T07:43:30;2.75;;;2.30;;
10174;SDS011;18221;38.704;0.152;2022-08-03T07:45:58;4.07;;;2.20;;
10174;SDS011;18221;38.704;0.152;2022-08-03T07:48:28;2.65;;;1.90;;
10174;SDS011;18221;38.704;0.152;2022-08-03T07:50:56;7.75;;;2.60;;
10174;SDS011;18221;38.704;0.152;2022-08-03T07:53:24;6.07;;;2.20;;
10174;SDS011;18221;38.704;0.152;2022-08-03T07:55:52;5.60;;;2.15;;
10174;SDS011;18221;38.704;0.152;2022-08-03T07:58:21;2.85;;;2.10;;
10174;SDS011;18221;38.704;0.152;2022-08-03T08:00:49;3.53;;;2.10;;
10174;SDS011;18221;38.704;0.152;2022-08-03T08:03:18;3.38;;;2.10;;
10174;SDS011;18221;38.704;0.152;2022-08-03T08:05:48;6.78;;;2.40;;
10174;SDS011;18221;38.704;0.152;2022-08-03T08:08:17;4.30;;;2.40;;
10174;SDS011;18221;38.704;0.152;2022-08-03T08:10:46;2.50;;;2.15;;
10174;SDS011;18221;38.704;0.152;2022-08-03T08:13:15;5.60;;;2.28;;
10174;SDS011;18221;38.704;0.152;2022-08-03T08:15:43;4.20;;;2.22;;
10174;SDS011;18221;38.704;0.152;2022-08-03T08:18:11;3.20;;;2.40;;
10174;SDS011;18221;38.704;0.152;2022-08-03T08:20:39;4.88;;;2.22;;
10174;SDS011;18221;38.704;0.152;2022-08-03T08:23:09;4.50;;;2.20;;
10174;SDS011;18221;38.704;0.152;2022-08-03T08:25:36;4.65;;;2.22;;
10174;SDS011;18221;38.704;0.152;2022-08-03T08:28:05;5.65;;;2.30;;
10174;SDS011;18221;38.704;0.152;2022-08-03T08:30:33;5.03;;;2.42;;
10174;SDS011;18221;38.704;0.152;2022-08-03T08:33:01;4.20;;;2.50;;
10174;SDS011;18221;38.704;0.152;2022-08-03T08:35:29;3.42;;;2.35;;
10174;SDS011;18221;38.704;0.152;2022-08-03T08:37:58;3.50;;;2.50;;
10174;SDS011;18221;38.704;0.152;2022-08-03T08:40:27;2.72;;;2.30;;
10174;SDS011;18221;38.704;0.152;2022-08-03T08:42:56;3.17;;;2.25;;
10174;SDS011;18221;38.704;0.152;2022-08-03T08:45:24;6.15;;;2.55;;
10174;SDS011;18221;38.704;0.152;2022-08-03T08:47:53;4.07;;;2.60;;
10174;SDS011;18221;38.704;0.152;2022-08-03T08:50:24;3.08;;;2.60;;
10174;SDS011;18221;38.704;0.152;2022-08-03T08:52:52;5.65;;;2.58;;
10174;SDS011;18221;38.704;0.152;2022-08-03T08:55:22;3.80;;;2.60;;
10174;SDS011;18221;38.704;0.152;2022-08-03T08:57:55;3.42;;;2.50;;
10174;SDS011;18221;38.704;0.152;2022-08-03T09:00:30;6.05;;;3.22;;
10174;SDS011;18221;38.704;0.152;2022-08-03T09:02:59;4.53;;;2.70;;
10174;SDS011;18221;38.704;0.152;2022-08-03T09:05:27;5.90;;;3.00;;
10174;SDS011;18221;38.704;0.152;2022-08-03T09:07:57;4.65;;;2.80;;
10174;SDS011;18221;38.704;0.152;2022-08-03T09:10:25;3.90;;;2.92;;
10174;SDS011;18221;38.704;0.152;2022-08-03T09:12:54;3.00;;;2.67;;
10174;SDS011;18221;38.704;0.152;2022-08-03T09:15:23;4.63;;;2.70;;
10174;SDS011;18221;38.704;0.152;2022-08-03T09:17:55;3.67;;;2.75;;
10174;SDS011;18221;38.704;0.152;2022-08-03T09:20:25;5.18;;;2.70;;
10174;SDS011;18221;38.704;0.152;2022-08-03T09:22:56;4.32;;;2.92;;
10174;SDS011;18221;38.704;0.152;2022-08-03T09:25:30;5.70;;;2.85;;
10174;SDS011;18221;38.704;0.152;2022-08-03T09:28:06;8.48;;;2.97;;
10174;SDS011;18221;38.704;0.152;2022-08-03T09:30:36;5.43;;;3.10;;
10174;SDS011;18221;38.704;0.152;2022-08-03T09:33:07;3.17;;;2.60;;
10174;SDS011;18221;38.704;0.152;2022-08-03T09:35:40;4.95;;;2.42;;
10174;SDS011;18221;38.704;0.152;2022-08-03T09:38:12;3.67;;;3.13;;
10174;SDS011;18221;38.704;0.152;2022-08-03T09:40:42;5.50;;;3.25;;
10174;SDS011;18221;38.704;0.152;2022-08-03T09:43:13;4.63;;;2.50;;
10174;SDS011;18221;38.704;0.152;2022-08-03T09:45:41;4.65;;;2.97;;
10174;SDS011;18221;38.704;0.152;2022-08-03T09:50:58;3.03;;;2.60;;
10174;SDS011;18221;38.704;0.152;2022-08-03T09:53:28;4.18;;;2.50;;
10174;SDS011;18221;38.704;0.152;2022-08-03T09:55:57;4.55;;;2.63;;
10174;SDS011;18221;38.704;0.152;2022-08-03T09:58:29;2.50;;;2.30;;
10174;SDS011;18221;38.704;0.152;2022-08-03T10:00:58;2.42;;;2.03;;
10174;SDS011;18221;38.704;0.152;2022-08-03T10:03:28;2.67;;;2.25;;
10174;SDS011;18221;38.704;0.152;2022-08-03T10:05:59;3.90;;;2.50;;
10174;SDS011;18221;38.704;0.152;2022-08-03T10:08:43;3.35;;;2.53;;
10174;SDS011;18221;38.704;0.152;2022-08-03T10:11:11;3.25;;;2.30;;
10174;SDS011;18221;38.704;0.152;2022-08-03T10:13:58;4.57;;;2.47;;
10174;SDS011;18221;38.704;0.152;2022-08-03T10:16:28;5.05;;;2.30;;
10174;SDS011;18221;38.704;0.152;2022-08-03T10:19:02;4.28;;;2.58;;
10174;SDS011;18221;38.704;0.152;2022-08-03T10:21:33;3.58;;;2.55;;
10174;SDS011;18221;38.704;0.152;2022-08-03T10:24:03;2.58;;;2.38;;
10174;SDS011;18221;38.704;0.152;2022-08-03T10:26:35;3.65;;;2.22;;
10174;SDS011;18221;38.704;0.152;2022-08-03T10:29:10;2.28;;;2.08;;
10174;SDS011;18221;38.704;0.152;2022-08-03T10:31:44;3.75;;;2.40;;
10174;SDS011;18221;38.704;0.152;2022-08-03T10:34:16;4.13;;;2.40;;
10174;SDS011;18221;38.704;0.152;2022-08-03T10:36:50;3.80;;;2.38;;
10174;SDS011;18221;38.704;0.152;2022-08-03T10:39:26;3.28;;;2.30;;
10174;SDS011;18221;38.704;0.152;2022-08-03T10:41:56;3.35;;;2.20;;
10174;SDS011;18221;38.704;0.152;2022-08-03T10:44:27;4.32;;;2.50;;
10174;SDS011;18221;38.704;0.152;2022-08-03T10:47:03;3.28;;;2.80;;
10174;SDS011;18221;38.704;0.152;2022-08-03T10:49:31;4.50;;;2.25;;
10174;SDS011;18221;38.704;0.152;2022-08-03T10:52:00;3.92;;;2.20;;
10174;SDS011;18221;38.704;0.152;2022-08-03T10:54:39;6.82;;;2.40;;
10174;SDS011;18221;38.704;0.152;2022-08-03T10:57:41;4.95;;;2.70;;
10174;SDS011;18221;38.704;0.152;2022-08-03T11:00:16;5.30;;;2.58;;
10174;SDS011;18221;38.704;0.152;2022-08-03T11:03:05;5.03;;;2.47;;
10174;SDS011;18221;38.704;0.152;2022-08-03T11:05:38;4.47;;;2.42;;
10174;SDS011;18221;38.704;0.152;2022-08-03T11:08:27;5.47;;;2.50;;
10174;SDS011;18221;38.704;0.152;2022-08-03T11:11:00;9.55;;;2.45;;
10174;SDS011;18221;38.704;0.152;2022-08-03T11:13:55;3.42;;;2.38;;
10174;SDS011;18221;38.704;0.152;2022-08-03T11:16:29;6.90;;;2.75;;
10174;SDS011;18221;38.704;0.152;2022-08-03T11:19:00;3.35;;;2.05;;
10174;SDS011;18221;38.704;0.152;2022-08-03T11:27:27;3.55;;;2.20;;
10174;SDS011;18221;38.704;0.152;2022-08-03T11:30:00;6.65;;;2.10;;
10174;SDS011;18221;38.704;0.152;2022-08-03T11:35:24;4.18;;;2.10;;
10174;SDS011;18221;38.704;0.152;2022-08-03T11:38:01;4.40;;;2.00;;
10174;SDS011;18221;38.704;0.152;2022-08-03T11:40:38;4.43;;;1.98;;
10174;SDS011;18221;38.704;0.152;2022-08-03T11:43:09;4.80;;;2.50;;
10174;SDS011;18221;38.704;0.152;2022-08-03T11:46:11;2.90;;;1.98;;
10174;SDS011;18221;38.704;0.152;2022-08-03T11:48:47;3.05;;;2.00;;
10174;SDS011;18221;38.704;0.152;2022-08-03T11:51:19;3.97;;;1.88;;
10174;SDS011;18221;38.704;0.152;2022-08-03T11:53:51;2.50;;;2.10;;
10174;SDS011;18221;38.704;0.152;2022-08-03T11:56:21;3.80;;;2.08;;
10174;SDS011;18221;38.704;0.152;2022-08-03T11:58:50;4.35;;;2.40;;
10174;SDS011;18221;38.704;0.152;2022-08-03T12:01:20;2.95;;;2.28;;
10174;SDS011;18221;38.704;0.152;2022-08-03T12:03:51;5.15;;;2.30;;
10174;SDS011;18221;38.704;0.152;2022-08-03T12:06:19;4.07;;;1.95;;
10174;SDS011;18221;38.704;0.152;2022-08-03T12:08:48;3.72;;;2.10;;
10174;SDS011;18221;38.704;0.152;2022-08-03T12:11:16;6.93;;;2.20;;
10174;SDS011;18221;38.704;0.152;2022-08-03T12:13:45;3.67;;;2.05;;
10174;SDS011;18221;38.704;0.152;2022-08-03T12:16:18;2.67;;;2.03;;
10174;SDS011;18221;38.704;0.152;2022-08-03T12:18:54;5.10;;;2.45;;
10174;SDS011;18221;38.704;0.152;2022-08-03T12:21:24;3.08;;;1.98;;
10174;SDS011;18221;38.704;0.152;2022-08-03T12:23:55;5.95;;;2.75;;
10174;SDS011;18221;38.704;0.152;2022-08-03T12:26:24;5.53;;;2.10;;
10174;SDS011;18221;38.704;0.152;2022-08-03T12:28:54;2.35;;;2.10;;
10174;SDS011;18221;38.704;0.152;2022-08-03T12:31:22;3.25;;;2.22;;
10174;SDS011;18221;38.704;0.152;2022-08-03T12:34:01;6.75;;;2.28;;
10174;SDS011;18221;38.704;0.152;2022-08-03T12:36:32;5.07;;;2.28;;
10174;SDS011;18221;38.704;0.152;2022-08-03T12:39:04;3.88;;;2.30;;
10174;SDS011;18221;38.704;0.152;2022-08-03T12:41:35;3.15;;;2.17;;
10174;SDS011;18221;38.704;0.152;2022-08-03T12:44:05;4.28;;;2.50;;
10174;SDS011;18221;38.704;0.152;2022-08-03T12:46:35;3.72;;;2.10;;
10174;SDS011;18221;38.704;0.152;2022-08-03T12:49:07;2.13;;;1.92;;
10174;SDS011;18221;38.704;0.152;2022-08-03T12:51:54;2.13;;;1.92;;
10174;SDS011;18221;38.704;0.152;2022-08-03T12:54:25;6.70;;;2.30;;
10174;SDS011;18221;38.704;0.152;2022-08-03T12:56:56;3.30;;;2.10;;
10174;SDS011;18221;38.704;0.152;2022-08-03T12:59:26;4.13;;;2.15;;
10174;SDS011;18221;38.704;0.152;2022-08-03T13:01:56;3.17;;;1.98;;
10174;SDS011;18221;38.704;0.152;2022-08-03T13:04:27;3.38;;;2.20;;
10174;SDS011;18221;38.704;0.152;2022-08-03T13:06:57;3.55;;;2.10;;
10174;SDS011;18221;38.704;0.152;2022-08-03T13:09:27;3.95;;;2.10;;
10174;SDS011;18221;38.704;0.152;2022-08-03T13:12:04;3.28;;;1.92;;
10174;SDS011;18221;38.704;0.152;2022-08-03T13:14:33;4.82;;;2.15;;
10174;SDS011;18221;38.704;0.152;2022-08-03T13:17:01;3.30;;;1.95;;
10174;SDS011;18221;38.704;0.152;2022-08-03T13:19:32;2.40;;;1.80;;
10174;SDS011;18221;38.704;0.152;2022-08-03T13:22:06;3.35;;;1.88;;
10174;SDS011;18221;38.704;0.152;2022-08-03T13:24:38;2.90;;;1.80;;
10174;SDS011;18221;38.704;0.152;2022-08-03T13:27:06;2.00;;;1.80;;
10174;SDS011;18221;38.704;0.152;2022-08-03T13:29:34;6.28;;;2.10;;
10174;SDS011;18221;38.704;0.152;2022-08-03T13:32:03;3.10;;;1.80;;
10174;SDS011;18221;38.704;0.152;2022-08-03T13:34:34;4.03;;;1.63;;
10174;SDS011;18221;38.704;0.152;2022-08-03T13:37:03;4.00;;;1.80;;
10174;SDS011;18221;38.704;0.152;2022-08-03T13:39:31;2.45;;;1.50;;
10174;SDS011;18221;38.704;0.152;2022-08-03T13:41:59;2.33;;;1.65;;
10174;SDS011;18221;38.704;0.152;2022-08-03T13:44:27;3.28;;;1.70;;
10174;SDS011;18221;38.704;0.152;2022-08-03T13:46:54;2.72;;;1.65;;
10174;SDS011;18221;38.704;0.152;2022-08-03T13:49:24;6.85;;;1.70;;
10174;SDS011;18221;38.704;0.152;2022-08-03T13:51:54;5.22;;;1.50;;
10174;SDS011;18221;38.704;0.152;2022-08-03T13:54:23;3.83;;;1.60;;
10174;SDS011;18221;38.704;0.152;2022-08-03T13:56:51;4.55;;;1.63;;
10174;SDS011;18221;38.704;0.152;2022-08-03T13:59:18;6.53;;;1.70;;
10174;SDS011;18221;38.704;0.152;2022-08-03T14:01:47;3.05;;;1.88;;
10174;SDS011;18221;38.704;0.152;2022-08-03T14:04:16;4.30;;;1.50;;
10174;SDS011;18221;38.704;0.152;2022-08-03T14:06:45;5.40;;;1.80;;
10174;SDS011;18221;38.704;0.152;2022-08-03T14:09:15;8.55;;;1.60;;
10174;SDS011;18221;38.704;0.152;2022-08-03T14:11:43;2.92;;;1.63;;
10174;SDS011;18221;38.704;0.152;2022-08-03T14:14:11;3.58;;;1.50;;
10174;SDS011;18221;38.704;0.152;2022-08-03T14:16:39;3.30;;;1.70;;
10174;SDS011;18221;38.704;0.152;2022-08-03T14:19:07;3.38;;;1.60;;
10174;SDS011;18221;38.704;0.152;2022-08-03T14:21:35;3.45;;;1.73;;
10174;SDS011;18221;38.704;0.152;2022-08-03T14:24:04;2.88;;;1.67;;
10174;SDS011;18221;38.704;0.152;2022-08-03T14:26:34;1.63;;;1.50;;
10174;SDS011;18221;38.704;0.152;2022-08-03T14:29:02;7.78;;;1.80;;
10174;SDS011;18221;38.704;0.152;2022-08-03T14:31:30;4.35;;;1.83;;
10174;SDS011;18221;38.704;0.152;2022-08-03T14:33:58;4.00;;;1.80;;
10174;SDS011;18221;38.704;0.152;2022-08-03T14:36:26;2.22;;;1.70;;
10174;SDS011;18221;38.704;0.152;2022-08-03T14:38:54;4.45;;;1.92;;
10174;SDS011;18221;38.704;0.152;2022-08-03T14:41:22;3.40;;;1.70;;
10174;SDS011;18221;38.704;0.152;2022-08-03T14:43:52;2.10;;;1.73;;
10174;SDS011;18221;38.704;0.152;2022-08-03T14:46:21;3.80;;;1.70;;
10174;SDS011;18221;38.704;0.152;2022-08-03T14:48:49;3.67;;;1.95;;
10174;SDS011;18221;38.704;0.152;2022-08-03T14:51:17;4.22;;;1.70;;
10174;SDS011;18221;38.704;0.152;2022-08-03T14:53:45;3.10;;;1.60;;
10174;SDS011;18221;38.704;0.152;2022-08-03T14:56:12;5.93;;;1.95;;
10174;SDS011;18221;38.704;0.152;2022-08-03T14:58:40;5.18;;;2.03;;
10174;SDS011;18221;38.704;0.152;2022-08-03T15:01:10;3.22;;;1.95;;
10174;SDS011;18221;38.704;0.152;2022-08-03T15:03:38;6.28;;;1.90;;
10174;SDS011;18221;38.704;0.152;2022-08-03T15:06:06;2.67;;;1.73;;
10174;SDS011;18221;38.704;0.152;2022-08-03T15:08:34;2.85;;;1.80;;
10174;SDS011;18221;38.704;0.152;2022-08-03T15:11:02;2.95;;;2.00;;
10174;SDS011;18221;38.704;0.152;2022-08-03T15:13:30;2.95;;;1.90;;
10174;SDS011;18221;38.704;0.152;2022-08-03T15:15:58;2.33;;;1.60;;
10174;SDS011;18221;38.704;0.152;2022-08-03T15:18:27;3.45;;;1.67;;
10174;SDS011;18221;38.704;0.152;2022-08-03T15:20:56;2.85;;;1.63;;
10174;SDS011;18221;38.704;0.152;2022-08-03T15:23:23;3.13;;;1.80;;
10174;SDS011;18221;38.704;0.152;2022-08-03T15:25:51;7.13;;;1.80;;
10174;SDS011;18221;38.704;0.152;2022-08-03T15:28:19;2.70;;;1.80;;
10174;SDS011;18221;38.704;0.152;2022-08-03T15:30:47;3.38;;;1.80;;